LBPD

Plovdiv Airport

Airport
ICAO code
LBPD
IATA Code
PDV
Summary
ICAO Region
EUR
ICAO Territory
Location

Krumovo, Thrace

Serving
Plovdiv
Elevation
597 ft
Coordinates
42° 4' 9" N , 24° 51' 2" E
KCC
Metar
Observation
LBPD 082000Z AUTO 00000KT 8000 OVC010/// 07/07 Q1016 NOSIG
Station
Plovdiv
Date/Time
2022-12-08 20:00:00
Wind direction
Wind speed
00 kts
Lowest cloud amount
overcast
Temperature
7°C
Dew point
7°C
Humidity
100%
QNH
1016 hPa
Weather condition
n/a

International airport serving Plovdiv, Bulgaria.

Climatology

Humid “subtropical” climate (Köppen climate classification Cfa)

Runways

Designator Length Width Surface Rops
12/30 2500 45 CON Yes/Yes

Airport map

Aerial View

SKYbrary Partners:

Safety knowledge contributed by: